createdAt,value
2023-01-06T00:00:08.481Z,-4.70
2023-01-06T00:02:36.167Z,-4.70
2023-01-06T00:05:03.047Z,-4.70
2023-01-06T00:07:29.851Z,-4.60
2023-01-06T00:09:56.649Z,-4.60
2023-01-06T00:12:23.422Z,-4.50
2023-01-06T00:14:50.213Z,-4.50
2023-01-06T00:17:17.063Z,-4.50
2023-01-06T00:19:44.138Z,-4.40
2023-01-06T00:22:11.086Z,-4.40
2023-01-06T00:24:37.950Z,-4.40
2023-01-06T00:27:04.709Z,-4.50
2023-01-06T00:29:31.482Z,-4.40
2023-01-06T00:32:01.573Z,-4.40
2023-01-06T00:34:28.851Z,-4.40
2023-01-06T00:36:55.928Z,-4.30
2023-01-06T00:39:24.026Z,-4.30
2023-01-06T00:42:06.961Z,-4.20
2023-01-06T00:44:34.845Z,-4.20
2023-01-06T00:47:02.373Z,-4.20
2023-01-06T00:49:29.249Z,-4.20
2023-01-06T00:51:56.238Z,-4.10
2023-01-06T00:54:23.092Z,-4.20
2023-01-06T00:56:51.143Z,-4.20
2023-01-06T00:59:19.511Z,-4.10
2023-01-06T01:01:47.771Z,-4.10
2023-01-06T01:04:15.341Z,-4.10
2023-01-06T01:06:45.953Z,-4.00
2023-01-06T01:09:14.404Z,-4.00
2023-01-06T01:11:59.907Z,-4.00
2023-01-06T01:14:26.765Z,-4.00
2023-01-06T01:16:53.577Z,-4.00
2023-01-06T01:19:20.821Z,-4.00
2023-01-06T01:21:48.080Z,-4.00
2023-01-06T01:24:15.288Z,-4.00
2023-01-06T01:26:42.233Z,-4.00
2023-01-06T01:29:10.744Z,-4.00
2023-01-06T01:31:37.562Z,-4.00
2023-01-06T01:34:04.307Z,-4.00
2023-01-06T01:36:31.104Z,-4.00
2023-01-06T01:38:58.279Z,-4.00
2023-01-06T01:41:25.777Z,-4.00
2023-01-06T01:43:53.912Z,-3.90
2023-01-06T01:46:29.060Z,-3.90
2023-01-06T01:48:57.200Z,-3.90
2023-01-06T01:51:26.621Z,-3.90
2023-01-06T01:53:54.412Z,-3.90
2023-01-06T01:56:24.538Z,-3.90
2023-01-06T01:58:54.115Z,-3.90
2023-01-06T02:01:21.098Z,-3.80
2023-01-06T02:03:48.120Z,-3.70
2023-01-06T02:06:17.237Z,-3.70
2023-01-06T02:08:56.462Z,-3.70
2023-01-06T02:11:23.561Z,-3.70
2023-01-06T02:13:52.367Z,-3.60
2023-01-06T02:16:19.178Z,-3.60
2023-01-06T02:18:52.063Z,-3.60
2023-01-06T02:21:30.684Z,-3.60
2023-01-06T02:24:23.738Z,-3.60
2023-01-06T02:27:08.484Z,-3.60
2023-01-06T02:29:47.513Z,-3.50
2023-01-06T02:32:14.942Z,-3.60
2023-01-06T02:35:00.636Z,-3.60
2023-01-06T02:38:02.624Z,-3.50
2023-01-06T02:40:35.289Z,-3.50
2023-01-06T02:43:20.690Z,-3.50
2023-01-06T02:46:00.130Z,-3.50
2023-01-06T02:48:32.561Z,-3.50
2023-01-06T02:51:06.870Z,-3.50
2023-01-06T02:53:39.507Z,-3.50
2023-01-06T02:56:06.745Z,-3.50
2023-01-06T02:58:47.272Z,-3.50
2023-01-06T03:01:25.163Z,-3.50
2023-01-06T03:03:52.892Z,-3.50
2023-01-06T03:06:22.535Z,-3.50
2023-01-06T03:08:50.076Z,-3.50
2023-01-06T03:11:16.982Z,-3.40
2023-01-06T03:13:49.169Z,-3.50
2023-01-06T03:16:16.313Z,-3.50
2023-01-06T03:18:45.062Z,-3.50
2023-01-06T03:21:14.548Z,-3.50
2023-01-06T03:23:41.654Z,-3.50
2023-01-06T03:26:09.252Z,-3.50
2023-01-06T03:28:36.127Z,-3.50
2023-01-06T03:31:15.677Z,-3.50
2023-01-06T03:33:51.387Z,-3.60
2023-01-06T03:36:21.168Z,-3.60
2023-01-06T03:38:47.912Z,-3.60
2023-01-06T03:41:59.679Z,-3.70
2023-01-06T03:44:33.497Z,-3.70
2023-01-06T03:47:05.325Z,-3.70
2023-01-06T03:49:33.617Z,-3.70
2023-01-06T03:52:05.674Z,-3.70
2023-01-06T03:54:38.830Z,-3.80
2023-01-06T03:57:18.438Z,-3.80
2023-01-06T03:59:47.466Z,-3.80
2023-01-06T04:02:14.613Z,-3.80
2023-01-06T04:04:41.609Z,-3.90
2023-01-06T04:07:08.458Z,-3.90
2023-01-06T04:09:35.265Z,-3.90
2023-01-06T04:12:20.480Z,-3.90
2023-01-06T04:14:47.232Z,-3.90
2023-01-06T04:17:14.053Z,-3.90
2023-01-06T04:19:40.803Z,-3.90
2023-01-06T04:22:07.724Z,-3.90
2023-01-06T04:24:34.507Z,-4.00
2023-01-06T04:27:01.344Z,-4.00
2023-01-06T04:29:28.324Z,-4.00
2023-01-06T04:31:55.249Z,-4.00
2023-01-06T04:34:22.091Z,-4.10
2023-01-06T04:36:48.897Z,-4.10
2023-01-06T04:39:15.703Z,-4.10
2023-01-06T04:41:42.549Z,-4.10
2023-01-06T04:44:09.384Z,-4.10
2023-01-06T04:46:36.189Z,-4.10
2023-01-06T04:49:03.067Z,-4.10
2023-01-06T04:51:29.938Z,-4.10
2023-01-06T04:53:56.838Z,-4.10
2023-01-06T04:56:25.311Z,-4.10
2023-01-06T04:58:55.475Z,-4.10
2023-01-06T05:01:22.724Z,-4.10
2023-01-06T05:03:49.775Z,-4.10
2023-01-06T05:06:16.683Z,-4.10
2023-01-06T05:08:43.994Z,-4.00
2023-01-06T05:11:12.507Z,-4.00
2023-01-06T05:13:39.556Z,-4.00
2023-01-06T05:16:24.880Z,-4.00
2023-01-06T05:18:51.768Z,-4.00
2023-01-06T05:21:18.616Z,-3.90
2023-01-06T05:23:45.453Z,-3.90
2023-01-06T05:26:19.510Z,-3.80
2023-01-06T05:28:46.416Z,-3.80
2023-01-06T05:31:13.302Z,-3.70
2023-01-06T05:33:40.453Z,-3.70
2023-01-06T05:36:11.889Z,-3.60
2023-01-06T05:38:39.087Z,-3.50
2023-01-06T05:41:06.308Z,-3.50
2023-01-06T05:43:34.040Z,-3.40
2023-01-06T05:46:04.405Z,-3.40
2023-01-06T05:48:31.265Z,-3.40
2023-01-06T05:51:02.412Z,-3.40
2023-01-06T05:53:31.088Z,-3.30
2023-01-06T05:56:04.908Z,-3.30
2023-01-06T05:58:33.538Z,-3.30
2023-01-06T06:01:01.325Z,-3.30
2023-01-06T06:03:28.181Z,-3.20
2023-01-06T06:05:55.105Z,-3.20
2023-01-06T06:08:21.923Z,-3.20
2023-01-06T06:10:48.730Z,-3.10
2023-01-06T06:13:15.588Z,-3.10
2023-01-06T06:15:42.533Z,-3.00
2023-01-06T06:18:09.481Z,-3.00
2023-01-06T06:20:36.275Z,-3.00
2023-01-06T06:23:03.040Z,-3.00
2023-01-06T06:25:29.891Z,-2.90
2023-01-06T06:28:00.079Z,-2.90
2023-01-06T06:30:26.880Z,-2.80
2023-01-06T06:32:53.686Z,-2.80
2023-01-06T06:35:20.490Z,-2.80
2023-01-06T06:37:47.300Z,-2.70
2023-01-06T06:40:14.219Z,-2.60
2023-01-06T06:42:40.975Z,-2.50
2023-01-06T06:45:08.111Z,-2.40
2023-01-06T06:47:34.904Z,-2.30
2023-01-06T06:50:01.677Z,-2.30
2023-01-06T06:52:28.551Z,-2.20
2023-01-06T06:54:55.471Z,-2.10
2023-01-06T06:57:22.281Z,-2.00
2023-01-06T06:59:49.067Z,-2.00
2023-01-06T07:02:16.155Z,-1.90
2023-01-06T07:04:43.088Z,-1.90
2023-01-06T07:07:09.955Z,-2.00
2023-01-06T07:09:36.906Z,-2.00
2023-01-06T07:12:03.879Z,-2.00
2023-01-06T07:14:30.771Z,-2.00
2023-01-06T07:16:59.951Z,-2.00
2023-01-06T07:19:26.869Z,-2.00
2023-01-06T07:21:53.677Z,-2.00
2023-01-06T07:24:20.514Z,-2.00
2023-01-06T07:26:47.300Z,-2.00
2023-01-06T07:29:14.080Z,-1.90
2023-01-06T07:31:40.859Z,-1.90
2023-01-06T07:34:07.623Z,-1.90
2023-01-06T07:36:34.398Z,-1.90
2023-01-06T07:39:01.238Z,-1.90
2023-01-06T07:41:28.061Z,-1.80
2023-01-06T07:43:54.824Z,-1.90
2023-01-06T07:46:21.645Z,-1.80
2023-01-06T07:48:48.535Z,-1.80
2023-01-06T07:51:15.333Z,-1.80
2023-01-06T07:53:42.170Z,-1.80
2023-01-06T07:56:08.973Z,-1.80
2023-01-06T07:58:35.767Z,-1.80
2023-01-06T08:01:06.754Z,-1.80
2023-01-06T08:03:33.716Z,-1.70
2023-01-06T08:06:00.521Z,-1.70
2023-01-06T08:08:27.314Z,-1.70
2023-01-06T08:10:58.063Z,-1.70
2023-01-06T08:13:24.883Z,-1.70
2023-01-06T08:15:52.748Z,-1.60
2023-01-06T08:18:19.923Z,-1.60
2023-01-06T08:20:46.744Z,-1.70
2023-01-06T08:23:13.578Z,-1.60
2023-01-06T08:25:40.419Z,-1.60
2023-01-06T08:28:07.226Z,-1.60
2023-01-06T08:30:39.976Z,-1.50
2023-01-06T08:33:06.848Z,-1.50
2023-01-06T08:35:33.647Z,-1.50
2023-01-06T08:38:00.435Z,-1.60
2023-01-06T08:40:27.289Z,-1.50
2023-01-06T08:42:54.067Z,-1.50
2023-01-06T08:45:20.894Z,-1.50
2023-01-06T08:47:47.940Z,-1.50
2023-01-06T08:50:14.735Z,-1.50
2023-01-06T08:52:41.543Z,-1.50
2023-01-06T08:55:08.383Z,-1.50
2023-01-06T08:57:35.155Z,-1.60
2023-01-06T09:00:02.540Z,-1.60
2023-01-06T09:02:31.502Z,-1.60
2023-01-06T09:04:58.459Z,-1.70
2023-01-06T09:07:25.341Z,-1.80
2023-01-06T09:09:52.247Z,-1.80
2023-01-06T09:12:19.079Z,-1.80
2023-01-06T09:14:45.887Z,-1.90
2023-01-06T09:17:12.706Z,-1.80
2023-01-06T09:19:39.551Z,-1.80
2023-01-06T09:22:07.340Z,-1.90
2023-01-06T09:24:34.298Z,-1.80
2023-01-06T09:27:01.127Z,-1.80
2023-01-06T09:29:27.946Z,-1.90
2023-01-06T09:31:54.806Z,-1.80
2023-01-06T09:34:21.603Z,-1.80
2023-01-06T09:36:48.369Z,-1.80
2023-01-06T09:39:15.174Z,-1.90
2023-01-06T09:42:00.341Z,-1.80
2023-01-06T09:44:27.089Z,-1.80
2023-01-06T09:46:53.957Z,-1.90
2023-01-06T09:49:39.285Z,-1.90
2023-01-06T09:52:28.417Z,-1.80
2023-01-06T09:54:57.555Z,-1.80
2023-01-06T09:57:29.949Z,-1.80
2023-01-06T10:00:05.223Z,-1.90
2023-01-06T10:02:39.526Z,-1.90
2023-01-06T10:05:19.998Z,-1.90
2023-01-06T10:08:05.368Z,-1.90
2023-01-06T10:10:48.629Z,-1.90
2023-01-06T10:13:40.552Z,-1.90
2023-01-06T10:16:16.685Z,-1.90
2023-01-06T10:19:03.545Z,-2.00
2023-01-06T10:21:35.298Z,-2.00
2023-01-06T10:24:04.873Z,-2.00
2023-01-06T10:26:34.205Z,-2.00
2023-01-06T10:29:06.865Z,-2.00
2023-01-06T10:31:35.270Z,-2.00
2023-01-06T10:34:03.066Z,-2.00
2023-01-06T10:36:32.090Z,-2.00
2023-01-06T10:38:59.489Z,-2.00
2023-01-06T10:41:26.237Z,-2.00
2023-01-06T10:43:53.279Z,-2.00
2023-01-06T10:46:20.175Z,-2.00
2023-01-06T10:48:49.392Z,-2.00
2023-01-06T10:51:32.750Z,-2.00
2023-01-06T10:54:01.318Z,-2.00
2023-01-06T10:56:29.283Z,-2.10
2023-01-06T10:59:12.569Z,-2.00
2023-01-06T11:01:50.287Z,-1.90
2023-01-06T11:04:18.969Z,-1.90
2023-01-06T11:06:48.966Z,-1.80
2023-01-06T11:09:25.053Z,-1.80
2023-01-06T11:11:52.883Z,-1.80
2023-01-06T11:14:21.206Z,-1.80
2023-01-06T11:17:14.357Z,-1.70
2023-01-06T11:19:42.349Z,-1.80
2023-01-06T11:22:27.664Z,-1.80
2023-01-06T11:24:54.653Z,-1.80
2023-01-06T11:27:21.476Z,-1.70
2023-01-06T11:29:48.371Z,-1.70
2023-01-06T11:32:20.417Z,-1.70
2023-01-06T11:35:06.102Z,-1.70
2023-01-06T11:37:34.381Z,-1.80
2023-01-06T11:40:11.600Z,-1.80
2023-01-06T11:45:29.210Z,-1.80
2023-01-06T11:47:56.268Z,-1.80
2023-01-06T11:50:23.203Z,-1.80
2023-01-06T11:53:16.065Z,-1.80
2023-01-06T11:55:54.670Z,-1.80
2023-01-06T11:58:27.314Z,-1.90
2023-01-06T12:01:01.423Z,-2.00
2023-01-06T12:03:48.918Z,-2.00
2023-01-06T12:06:22.084Z,-2.00
2023-01-06T12:09:09.432Z,-2.10
2023-01-06T12:11:43.170Z,-2.10
2023-01-06T12:14:28.637Z,-2.20
2023-01-06T12:17:02.161Z,-2.30
2023-01-06T12:19:36.100Z,-2.30
2023-01-06T12:22:03.844Z,-2.40
2023-01-06T12:24:33.312Z,-2.40
2023-01-06T12:27:03.849Z,-2.40
2023-01-06T12:29:31.589Z,-2.40
2023-01-06T12:32:15.290Z,-2.30
2023-01-06T12:34:46.201Z,-2.30
2023-01-06T12:37:17.608Z,-2.50
2023-01-06T12:39:50.787Z,-2.50
2023-01-06T12:42:26.706Z,-2.60
2023-01-06T12:45:11.676Z,-2.50
2023-01-06T12:47:47.142Z,-2.50
2023-01-06T12:50:32.335Z,-2.50
2023-01-06T12:53:07.310Z,-2.50
2023-01-06T12:55:44.537Z,-2.50
2023-01-06T12:58:22.238Z,-2.50
2023-01-06T13:01:12.166Z,-2.50
2023-01-06T13:03:54.421Z,-2.60
2023-01-06T13:06:30.561Z,-2.60
2023-01-06T13:09:06.523Z,-2.70
2023-01-06T13:12:12.040Z,-2.60
2023-01-06T13:14:38.853Z,-2.60
2023-01-06T13:17:09.740Z,-2.60
2023-01-06T13:19:42.108Z,-2.60
2023-01-06T13:22:10.836Z,-2.60
2023-01-06T13:24:48.739Z,-2.60
2023-01-06T13:27:15.556Z,-2.60
2023-01-06T13:29:45.206Z,-2.60
2023-01-06T13:32:23.977Z,-2.70
2023-01-06T13:34:59.615Z,-2.70
2023-01-06T13:37:29.071Z,-2.70
2023-01-06T13:40:00.985Z,-2.70
2023-01-06T13:42:31.965Z,-2.70
2023-01-06T13:44:59.080Z,-2.70
2023-01-06T13:47:26.091Z,-2.70
2023-01-06T13:49:53.148Z,-2.70
2023-01-06T13:52:22.861Z,-2.70
2023-01-06T13:54:49.832Z,-2.70
2023-01-06T13:57:22.549Z,-2.70
2023-01-06T13:59:49.478Z,-2.70
2023-01-06T14:02:34.949Z,-2.60
2023-01-06T14:05:02.883Z,-2.60
2023-01-06T14:07:35.714Z,-2.70
2023-01-06T14:10:04.213Z,-2.70
2023-01-06T14:12:33.413Z,-2.70
2023-01-06T14:15:07.904Z,-2.70
2023-01-06T14:17:39.042Z,-2.70
2023-01-06T14:20:06.385Z,-2.60
2023-01-06T14:22:34.076Z,-2.60
2023-01-06T14:25:02.091Z,-2.60
2023-01-06T14:27:49.162Z,-2.50
2023-01-06T14:30:26.044Z,-2.50
2023-01-06T14:32:52.818Z,-2.50
2023-01-06T14:35:22.729Z,-2.50
2023-01-06T14:38:01.253Z,-2.50
2023-01-06T14:40:37.307Z,-2.50
2023-01-06T14:43:07.753Z,-2.50
2023-01-06T14:45:39.576Z,-2.40
2023-01-06T14:48:18.164Z,-2.40
2023-01-06T14:50:48.987Z,-2.40
2023-01-06T14:53:18.834Z,-2.40
2023-01-06T14:55:48.355Z,-2.40
2023-01-06T14:58:36.895Z,-2.50
2023-01-06T15:01:04.607Z,-2.50
2023-01-06T15:03:32.073Z,-2.50
2023-01-06T15:06:13.060Z,-2.50
2023-01-06T15:08:39.915Z,-2.50
2023-01-06T15:11:18.406Z,-2.50
2023-01-06T15:13:45.459Z,-2.40
2023-01-06T15:16:15.379Z,-2.40
2023-01-06T15:18:43.192Z,-2.40
2023-01-06T15:21:12.706Z,-2.40
2023-01-06T15:23:45.117Z,-2.50
2023-01-06T15:26:16.608Z,-2.50
2023-01-06T15:28:55.123Z,-2.50
2023-01-06T15:31:21.952Z,-2.50
2023-01-06T15:33:48.936Z,-2.50
2023-01-06T15:36:20.489Z,-2.50
2023-01-06T15:38:47.659Z,-2.60
2023-01-06T15:41:32.629Z,-2.60
2023-01-06T15:44:01.103Z,-2.70
2023-01-06T15:46:35.788Z,-2.70
2023-01-06T15:49:02.916Z,-2.80
2023-01-06T15:51:29.793Z,-2.80
2023-01-06T15:53:58.220Z,-2.70
2023-01-06T15:56:30.602Z,-2.70
2023-01-06T15:58:58.191Z,-2.70
2023-01-06T16:01:25.374Z,-2.70
2023-01-06T16:03:54.263Z,-2.80
2023-01-06T16:06:25.671Z,-2.80
2023-01-06T16:08:52.461Z,-2.80
2023-01-06T16:11:47.722Z,-2.80
2023-01-06T16:14:35.131Z,-2.90
2023-01-06T16:17:10.682Z,-2.90
2023-01-06T16:19:39.937Z,-2.90
2023-01-06T16:22:08.601Z,-2.90
2023-01-06T16:24:35.568Z,-2.90
2023-01-06T16:27:03.776Z,-2.90
2023-01-06T16:29:33.358Z,-2.90
2023-01-06T16:32:19.894Z,-2.80
2023-01-06T16:34:51.475Z,-2.90
2023-01-06T16:37:18.560Z,-2.90
2023-01-06T16:39:45.734Z,-2.90
2023-01-06T16:42:32.513Z,-2.90
2023-01-06T16:45:03.913Z,-2.90
2023-01-06T16:47:30.742Z,-2.90
2023-01-06T16:49:57.591Z,-2.90
2023-01-06T16:52:25.549Z,-2.90
2023-01-06T16:54:52.981Z,-2.90
2023-01-06T16:57:20.309Z,-2.90
2023-01-06T16:59:47.157Z,-2.80
2023-01-06T17:02:15.673Z,-2.90
2023-01-06T17:04:43.638Z,-2.90
2023-01-06T17:07:13.247Z,-2.90
2023-01-06T17:09:40.567Z,-2.80
2023-01-06T17:12:35.208Z,-2.80
2023-01-06T17:15:02.457Z,-2.80
2023-01-06T17:17:29.301Z,-2.80
2023-01-06T17:19:56.128Z,-2.80
2023-01-06T17:22:30.484Z,-2.80
2023-01-06T17:25:00.928Z,-2.90
2023-01-06T17:27:28.808Z,-2.80
2023-01-06T17:29:58.490Z,-2.80
2023-01-06T17:32:29.790Z,-2.80
2023-01-06T17:34:57.627Z,-2.80
2023-01-06T17:37:25.971Z,-2.80
2023-01-06T17:39:53.138Z,-2.80
2023-01-06T17:42:25.472Z,-2.80
2023-01-06T17:44:54.369Z,-2.80
2023-01-06T17:47:21.098Z,-2.70
2023-01-06T17:49:49.788Z,-2.80
2023-01-06T17:52:18.828Z,-2.70
2023-01-06T17:55:09.846Z,-2.70
2023-01-06T17:57:37.751Z,-2.70
2023-01-06T18:00:14.830Z,-2.70
2023-01-06T18:02:43.006Z,-2.70
2023-01-06T18:05:25.016Z,-2.70
2023-01-06T18:08:00.124Z,-2.70
2023-01-06T18:10:26.958Z,-2.70
2023-01-06T18:12:55.587Z,-2.70
2023-01-06T18:15:33.529Z,-2.70
2023-01-06T18:18:02.425Z,-2.70
2023-01-06T18:20:29.441Z,-2.80
2023-01-06T18:22:56.401Z,-2.70
2023-01-06T18:25:24.256Z,-2.70
2023-01-06T18:27:51.508Z,-2.70
2023-01-06T18:30:21.301Z,-2.80
2023-01-06T18:32:49.951Z,-2.80
2023-01-06T18:35:16.826Z,-2.80
2023-01-06T18:37:43.621Z,-2.80
2023-01-06T18:40:12.621Z,-2.80
2023-01-06T18:42:46.623Z,-2.80
2023-01-06T18:45:18.593Z,-2.80
2023-01-06T18:47:48.989Z,-2.80
2023-01-06T18:50:27.772Z,-2.80
2023-01-06T18:52:55.724Z,-2.70
2023-01-06T18:55:22.492Z,-2.70
2023-01-06T18:57:56.920Z,-2.70
2023-01-06T19:00:23.747Z,-2.70
2023-01-06T19:02:51.404Z,-2.80
2023-01-06T19:05:18.204Z,-2.80
2023-01-06T19:07:45.001Z,-2.80
2023-01-06T19:10:26.038Z,-2.70
2023-01-06T19:12:55.277Z,-2.70
2023-01-06T19:15:23.213Z,-2.80
2023-01-06T19:17:50.720Z,-2.70
2023-01-06T19:20:29.002Z,-2.70
2023-01-06T19:22:57.142Z,-2.60
2023-01-06T19:25:33.332Z,-2.60
2023-01-06T19:28:02.589Z,-2.60
2023-01-06T19:30:32.321Z,-2.60
2023-01-06T19:33:18.737Z,-2.60
2023-01-06T19:35:45.660Z,-2.60
2023-01-06T19:38:30.644Z,-2.50
2023-01-06T19:40:59.127Z,-2.50
2023-01-06T19:43:32.775Z,-2.50
2023-01-06T19:46:30.101Z,-2.40
2023-01-06T19:48:59.433Z,-2.40
2023-01-06T19:51:34.091Z,-2.30
2023-01-06T19:54:24.301Z,-2.30
2023-01-06T19:56:51.996Z,-2.30
2023-01-06T19:59:31.347Z,-2.30
2023-01-06T20:01:58.438Z,-2.30
2023-01-06T20:04:26.751Z,-2.30
2023-01-06T20:06:53.816Z,-2.30
2023-01-06T20:09:23.675Z,-2.30
2023-01-06T20:11:51.451Z,-2.30
2023-01-06T20:14:18.789Z,-2.20
2023-01-06T20:16:46.387Z,-2.20
2023-01-06T20:19:13.633Z,-2.10
2023-01-06T20:21:40.470Z,-2.10
2023-01-06T20:24:07.996Z,-2.10
2023-01-06T20:26:35.021Z,-2.10
2023-01-06T20:29:02.200Z,-2.20
2023-01-06T20:31:29.109Z,-2.10
2023-01-06T20:33:56.223Z,-2.10
2023-01-06T20:36:23.067Z,-2.10
2023-01-06T20:38:50.233Z,-2.10
2023-01-06T20:41:17.265Z,-2.10
2023-01-06T20:43:44.107Z,-2.10
2023-01-06T20:46:11.007Z,-2.10
2023-01-06T20:48:37.862Z,-2.00
2023-01-06T20:51:04.842Z,-2.00
2023-01-06T20:53:31.760Z,-2.00
2023-01-06T20:55:58.624Z,-2.00
2023-01-06T20:58:25.420Z,-2.00
2023-01-06T21:00:52.263Z,-2.00
2023-01-06T21:03:19.132Z,-2.00
2023-01-06T21:05:45.883Z,-2.00
2023-01-06T21:08:12.727Z,-2.00
2023-01-06T21:10:39.645Z,-2.00
2023-01-06T21:13:06.506Z,-2.00
2023-01-06T21:15:33.347Z,-2.00
2023-01-06T21:18:00.211Z,-2.00
2023-01-06T21:20:27.074Z,-2.00
2023-01-06T21:22:53.923Z,-1.90
2023-01-06T21:25:20.737Z,-1.90
2023-01-06T21:27:47.563Z,-1.90
2023-01-06T21:30:14.808Z,-1.90
2023-01-06T21:32:41.671Z,-1.90
2023-01-06T21:35:08.736Z,-1.90
2023-01-06T21:37:35.701Z,-1.90
2023-01-06T21:40:06.752Z,-1.90
2023-01-06T21:42:52.159Z,-1.90
2023-01-06T21:45:18.944Z,-1.90
2023-01-06T21:47:45.753Z,-1.90
2023-01-06T21:50:12.995Z,-1.80
2023-01-06T21:52:39.988Z,-1.90
2023-01-06T21:55:07.328Z,-1.80
2023-01-06T21:57:34.158Z,-1.80
2023-01-06T22:00:01.000Z,-1.80
2023-01-06T22:02:28.075Z,-1.70
2023-01-06T22:04:55.051Z,-1.80
2023-01-06T22:07:21.992Z,-1.70
2023-01-06T22:09:49.027Z,-1.70
2023-01-06T22:12:17.355Z,-1.70
2023-01-06T22:14:44.595Z,-1.60
2023-01-06T22:17:11.833Z,-1.70
2023-01-06T22:19:39.212Z,-1.60
2023-01-06T22:22:06.672Z,-1.60
2023-01-06T22:24:33.897Z,-1.60
2023-01-06T22:27:00.769Z,-1.60
2023-01-06T22:29:27.730Z,-1.60
2023-01-06T22:31:54.829Z,-1.50
2023-01-06T22:34:21.648Z,-1.50
2023-01-06T22:36:48.441Z,-1.50
2023-01-06T22:39:15.308Z,-1.40
2023-01-06T22:41:42.096Z,-1.40
2023-01-06T22:44:08.996Z,-1.40
2023-01-06T22:46:35.780Z,-1.40
2023-01-06T22:49:02.656Z,-1.40
2023-01-06T22:51:29.661Z,-1.40
2023-01-06T22:53:57.117Z,-1.50
2023-01-06T22:56:24.137Z,-1.40
2023-01-06T22:58:50.931Z,-1.40
2023-01-06T23:01:18.021Z,-1.40
2023-01-06T23:03:45.054Z,-1.40
2023-01-06T23:06:13.124Z,-1.30
2023-01-06T23:08:51.000Z,-1.30
2023-01-06T23:11:22.774Z,-1.30
2023-01-06T23:13:54.329Z,-1.30
2023-01-06T23:16:22.690Z,-1.30
2023-01-06T23:18:50.025Z,-1.30
2023-01-06T23:21:20.578Z,-1.30
2023-01-06T23:23:48.333Z,-1.20
2023-01-06T23:26:16.929Z,-1.30
2023-01-06T23:28:44.154Z,-1.30
2023-01-06T23:31:13.093Z,-1.30
2023-01-06T23:33:40.934Z,-1.30
2023-01-06T23:36:08.302Z,-1.30
2023-01-06T23:38:35.119Z,-1.20
2023-01-06T23:41:06.437Z,-1.20
2023-01-06T23:43:34.228Z,-1.20
2023-01-06T23:46:05.319Z,-1.20
2023-01-06T23:48:32.853Z,-1.20
2023-01-06T23:51:00.023Z,-1.10
2023-01-06T23:53:27.418Z,-1.10
2023-01-06T23:55:54.964Z,-1.10
2023-01-06T23:58:21.948Z,-1.20
